sensor_id;sensor_type;location;lat;lon;timestamp;pressure;altitude;pressure_sealevel;temperature;humidity
75656;BME280;64252;51.094;13.714;2024-02-16T00:01:45;100437.59;;;16.46;50.94
75656;BME280;64252;51.094;13.714;2024-02-16T00:04:10;100428.91;;;15.55;53.13
75656;BME280;64252;51.094;13.714;2024-02-16T00:06:36;100427.78;;;15.83;53.00
75656;BME280;64252;51.094;13.714;2024-02-16T00:09:02;100425.34;;;16.15;51.60
75656;BME280;64252;51.094;13.714;2024-02-16T00:11:28;100417.31;;;15.73;52.79
75656;BME280;64252;51.094;13.714;2024-02-16T00:13:54;100421.47;;;16.02;52.24
75656;BME280;64252;51.094;13.714;2024-02-16T00:16:19;100407.66;;;16.31;51.50
75656;BME280;64252;51.094;13.714;2024-02-16T00:18:46;100410.41;;;15.74;52.42
75656;BME280;64252;51.094;13.714;2024-02-16T00:21:11;100404.06;;;15.93;52.46
75656;BME280;64252;51.094;13.714;2024-02-16T00:23:37;100398.13;;;16.14;51.77
75656;BME280;64252;51.094;13.714;2024-02-16T00:26:02;100397.31;;;16.14;51.70
75656;BME280;64252;51.094;13.714;2024-02-16T00:28:32;100399.00;;;16.08;51.72
75656;BME280;64252;51.094;13.714;2024-02-16T00:30:57;100399.81;;;15.74;52.67
75656;BME280;64252;51.094;13.714;2024-02-16T00:33:23;100396.91;;;15.82;52.25
75656;BME280;64252;51.094;13.714;2024-02-16T00:35:48;100391.94;;;15.52;53.04
75656;BME280;64252;51.094;13.714;2024-02-16T00:38:15;100386.28;;;15.04;54.48
75656;BME280;64252;51.094;13.714;2024-02-16T00:40:40;100389.91;;;15.52;53.16
75656;BME280;64252;51.094;13.714;2024-02-16T00:43:09;100389.28;;;15.30;53.86
75656;BME280;64252;51.094;13.714;2024-02-16T00:45:35;100383.13;;;15.76;53.09
75656;BME280;64252;51.094;13.714;2024-02-16T00:48:00;100391.81;;;15.96;51.74
75656;BME280;64252;51.094;13.714;2024-02-16T00:50:27;100391.69;;;16.07;51.32
75656;BME280;64252;51.094;13.714;2024-02-16T00:52:53;100387.44;;;15.54;52.66
75656;BME280;64252;51.094;13.714;2024-02-16T00:55:18;100378.09;;;15.91;52.05
75656;BME280;64252;51.094;13.714;2024-02-16T00:57:44;100385.25;;;16.03;51.45
75656;BME280;64252;51.094;13.714;2024-02-16T01:00:10;100374.13;;;16.12;51.37
75656;BME280;64252;51.094;13.714;2024-02-16T01:02:36;100371.28;;;15.44;52.69
75656;BME280;64252;51.094;13.714;2024-02-16T01:05:01;100372.81;;;14.63;54.75
75656;BME280;64252;51.094;13.714;2024-02-16T01:07:28;100369.25;;;15.78;52.77
75656;BME280;64252;51.094;13.714;2024-02-16T01:09:53;100371.16;;;15.58;52.61
75656;BME280;64252;51.094;13.714;2024-02-16T01:12:20;100367.44;;;15.61;52.56
75656;BME280;64252;51.094;13.714;2024-02-16T01:14:48;100356.19;;;15.85;51.95
75656;BME280;64252;51.094;13.714;2024-02-16T01:17:14;100353.72;;;15.49;52.80
75656;BME280;64252;51.094;13.714;2024-02-16T01:19:39;100359.28;;;15.22;53.31
75656;BME280;64252;51.094;13.714;2024-02-16T01:22:05;100361.13;;;15.80;52.00
75656;BME280;64252;51.094;13.714;2024-02-16T01:24:31;100366.25;;;15.18;53.32
75656;BME280;64252;51.094;13.714;2024-02-16T01:26:56;100374.88;;;15.86;51.69
75656;BME280;64252;51.094;13.714;2024-02-16T01:29:23;100372.19;;;15.30;52.90
75656;BME280;64252;51.094;13.714;2024-02-16T01:31:48;100373.94;;;15.62;52.96
75656;BME280;64252;51.094;13.714;2024-02-16T01:34:14;100367.00;;;15.22;53.20
75656;BME280;64252;51.094;13.714;2024-02-16T01:36:40;100362.53;;;15.21;53.48
75656;BME280;64252;51.094;13.714;2024-02-16T01:39:06;100369.06;;;15.62;52.89
75656;BME280;64252;51.094;13.714;2024-02-16T01:41:33;100366.59;;;15.98;51.27
75656;BME280;64252;51.094;13.714;2024-02-16T01:43:58;100361.34;;;15.93;51.70
75656;BME280;64252;51.094;13.714;2024-02-16T01:46:25;100362.38;;;16.10;50.85
75656;BME280;64252;51.094;13.714;2024-02-16T01:48:51;100361.69;;;15.99;51.17
75656;BME280;64252;51.094;13.714;2024-02-16T01:51:18;100363.94;;;16.14;50.89
75656;BME280;64252;51.094;13.714;2024-02-16T01:53:44;100362.69;;;15.85;51.64
75656;BME280;64252;51.094;13.714;2024-02-16T01:56:10;100361.06;;;15.84;51.72
75656;BME280;64252;51.094;13.714;2024-02-16T01:58:35;100350.97;;;16.10;51.42
75656;BME280;64252;51.094;13.714;2024-02-16T02:01:01;100357.03;;;16.12;51.43
75656;BME280;64252;51.094;13.714;2024-02-16T02:03:26;100342.72;;;16.19;51.32
75656;BME280;64252;51.094;13.714;2024-02-16T02:05:52;100348.09;;;16.40;50.89
75656;BME280;64252;51.094;13.714;2024-02-16T02:08:20;100344.84;;;16.11;51.29
75656;BME280;64252;51.094;13.714;2024-02-16T02:10:46;100354.47;;;15.91;51.64
75656;BME280;64252;51.094;13.714;2024-02-16T02:13:11;100353.69;;;15.90;51.85
75656;BME280;64252;51.094;13.714;2024-02-16T02:15:37;100343.38;;;16.00;51.73
75656;BME280;64252;51.094;13.714;2024-02-16T02:18:03;100336.41;;;16.31;50.48
75656;BME280;64252;51.094;13.714;2024-02-16T02:20:28;100340.88;;;16.32;50.36
75656;BME280;64252;51.094;13.714;2024-02-16T02:22:54;100334.25;;;16.12;50.72
75656;BME280;64252;51.094;13.714;2024-02-16T02:25:20;100335.72;;;15.93;51.06
75656;BME280;64252;51.094;13.714;2024-02-16T02:27:45;100333.81;;;15.83;51.26
75656;BME280;64252;51.094;13.714;2024-02-16T02:30:11;100337.81;;;15.55;51.73
75656;BME280;64252;51.094;13.714;2024-02-16T02:32:36;100330.19;;;15.45;52.50
75656;BME280;64252;51.094;13.714;2024-02-16T02:35:02;100332.69;;;15.77;51.79
75656;BME280;64252;51.094;13.714;2024-02-16T02:37:29;100330.97;;;15.83;51.57
75656;BME280;64252;51.094;13.714;2024-02-16T02:39:55;100327.13;;;15.66;52.12
75656;BME280;64252;51.094;13.714;2024-02-16T02:42:21;100333.19;;;15.31;53.09
75656;BME280;64252;51.094;13.714;2024-02-16T02:44:46;100330.13;;;15.15;53.94
75656;BME280;64252;51.094;13.714;2024-02-16T02:47:16;100326.97;;;15.06;53.86
75656;BME280;64252;51.094;13.714;2024-02-16T02:49:42;100331.44;;;15.41;53.44
75656;BME280;64252;51.094;13.714;2024-02-16T02:52:08;100326.50;;;15.48;53.20
75656;BME280;64252;51.094;13.714;2024-02-16T02:54:35;100329.50;;;16.02;51.54
75656;BME280;64252;51.094;13.714;2024-02-16T02:57:01;100322.28;;;16.24;51.11
75656;BME280;64252;51.094;13.714;2024-02-16T02:59:27;100325.16;;;16.20;51.08
75656;BME280;64252;51.094;13.714;2024-02-16T03:01:53;100328.94;;;16.41;50.91
75656;BME280;64252;51.094;13.714;2024-02-16T03:04:18;100332.41;;;16.29;50.90
75656;BME280;64252;51.094;13.714;2024-02-16T03:06:44;100329.47;;;16.32;51.28
75656;BME280;64252;51.094;13.714;2024-02-16T03:09:11;100330.56;;;16.15;51.49
75656;BME280;64252;51.094;13.714;2024-02-16T03:11:38;100337.56;;;16.37;51.38
75656;BME280;64252;51.094;13.714;2024-02-16T03:14:04;100332.13;;;16.19;51.64
75656;BME280;64252;51.094;13.714;2024-02-16T03:16:31;100329.81;;;16.64;50.62
75656;BME280;64252;51.094;13.714;2024-02-16T03:18:57;100328.41;;;16.49;51.06
75656;BME280;64252;51.094;13.714;2024-02-16T03:21:22;100318.94;;;16.56;50.79
75656;BME280;64252;51.094;13.714;2024-02-16T03:23:48;100319.78;;;16.26;51.50
75656;BME280;64252;51.094;13.714;2024-02-16T03:26:15;100313.16;;;16.06;51.97
75656;BME280;64252;51.094;13.714;2024-02-16T03:28:42;100311.28;;;15.96;52.31
75656;BME280;64252;51.094;13.714;2024-02-16T03:31:20;100307.25;;;15.93;52.98
75656;BME280;64252;51.094;13.714;2024-02-16T03:33:47;100315.94;;;16.66;50.97
75656;BME280;64252;51.094;13.714;2024-02-16T03:36:13;100313.09;;;16.66;51.37
75656;BME280;64252;51.094;13.714;2024-02-16T03:38:43;100315.50;;;16.41;53.33
75656;BME280;64252;51.094;13.714;2024-02-16T03:41:22;100312.22;;;16.93;53.14
75656;BME280;64252;51.094;13.714;2024-02-16T03:43:49;100325.50;;;17.46;51.55
75656;BME280;64252;51.094;13.714;2024-02-16T03:46:14;100326.41;;;17.63;51.30
75656;BME280;64252;51.094;13.714;2024-02-16T03:48:40;100322.41;;;17.56;51.16
75656;BME280;64252;51.094;13.714;2024-02-16T03:51:06;100333.19;;;17.06;53.56
75656;BME280;64252;51.094;13.714;2024-02-16T03:53:32;100333.97;;;17.73;52.33
75656;BME280;64252;51.094;13.714;2024-02-16T03:55:57;100330.66;;;17.94;51.44
75656;BME280;64252;51.094;13.714;2024-02-16T03:58:24;100334.41;;;18.27;50.09
75656;BME280;64252;51.094;13.714;2024-02-16T04:00:49;100330.66;;;17.94;50.83
75656;BME280;64252;51.094;13.714;2024-02-16T04:03:16;100323.44;;;18.25;50.07
75656;BME280;64252;51.094;13.714;2024-02-16T04:05:42;100328.38;;;17.85;51.47
75656;BME280;64252;51.094;13.714;2024-02-16T04:08:08;100328.34;;;17.26;52.99
75656;BME280;64252;51.094;13.714;2024-02-16T04:10:34;100331.59;;;18.07;50.75
75656;BME280;64252;51.094;13.714;2024-02-16T04:13:01;100328.94;;;17.57;51.66
75656;BME280;64252;51.094;13.714;2024-02-16T04:15:27;100335.94;;;17.33;52.49
75656;BME280;64252;51.094;13.714;2024-02-16T04:17:52;100332.72;;;17.74;51.19
75656;BME280;64252;51.094;13.714;2024-02-16T04:20:19;100334.75;;;18.13;50.16
75656;BME280;64252;51.094;13.714;2024-02-16T04:22:45;100326.38;;;17.23;52.14
75656;BME280;64252;51.094;13.714;2024-02-16T04:25:11;100335.63;;;17.50;51.96
75656;BME280;64252;51.094;13.714;2024-02-16T04:27:36;100325.28;;;17.56;51.79
75656;BME280;64252;51.094;13.714;2024-02-16T04:30:03;100323.44;;;17.27;52.60
75656;BME280;64252;51.094;13.714;2024-02-16T04:32:29;100327.41;;;17.52;51.32
75656;BME280;64252;51.094;13.714;2024-02-16T04:34:55;100337.47;;;17.80;50.87
75656;BME280;64252;51.094;13.714;2024-02-16T04:37:25;100336.09;;;17.88;50.14
75656;BME280;64252;51.094;13.714;2024-02-16T04:39:50;100332.84;;;17.67;51.04
75656;BME280;64252;51.094;13.714;2024-02-16T04:42:16;100327.75;;;17.78;50.58
75656;BME280;64252;51.094;13.714;2024-02-16T04:44:42;100332.38;;;17.48;50.87
75656;BME280;64252;51.094;13.714;2024-02-16T04:47:07;100328.03;;;17.21;52.19
75656;BME280;64252;51.094;13.714;2024-02-16T04:49:33;100327.16;;;17.67;51.00
75656;BME280;64252;51.094;13.714;2024-02-16T04:51:58;100327.31;;;17.60;50.96
75656;BME280;64252;51.094;13.714;2024-02-16T04:54:24;100325.94;;;17.01;51.93
75656;BME280;64252;51.094;13.714;2024-02-16T04:56:50;100326.09;;;17.37;51.11
75656;BME280;64252;51.094;13.714;2024-02-16T04:59:18;100328.72;;;17.05;52.35
75656;BME280;64252;51.094;13.714;2024-02-16T05:01:44;100334.44;;;17.48;50.76
75656;BME280;64252;51.094;13.714;2024-02-16T05:04:13;100326.88;;;17.18;51.86
75656;BME280;64252;51.094;13.714;2024-02-16T05:06:39;100330.56;;;17.15;51.59
75656;BME280;64252;51.094;13.714;2024-02-16T05:09:08;100322.66;;;17.46;50.90
75656;BME280;64252;51.094;13.714;2024-02-16T05:11:33;100324.47;;;17.36;51.32
75656;BME280;64252;51.094;13.714;2024-02-16T05:13:58;100329.28;;;17.63;50.23
75656;BME280;64252;51.094;13.714;2024-02-16T05:16:25;100330.66;;;16.88;52.31
75656;BME280;64252;51.094;13.714;2024-02-16T05:18:51;100332.34;;;17.72;50.38
75656;BME280;64252;51.094;13.714;2024-02-16T05:21:16;100322.16;;;17.71;50.56
75656;BME280;64252;51.094;13.714;2024-02-16T05:23:42;100326.81;;;17.41;50.51
75656;BME280;64252;51.094;13.714;2024-02-16T05:26:07;100328.78;;;17.68;50.10
75656;BME280;64252;51.094;13.714;2024-02-16T05:28:33;100326.22;;;17.30;51.55
75656;BME280;64252;51.094;13.714;2024-02-16T05:31:14;100323.91;;;18.04;49.39
75656;BME280;64252;51.094;13.714;2024-02-16T05:33:41;100325.78;;;17.51;50.47
75656;BME280;64252;51.094;13.714;2024-02-16T05:36:07;100324.31;;;17.43;51.06
75656;BME280;64252;51.094;13.714;2024-02-16T05:38:32;100326.59;;;17.52;50.51
75656;BME280;64252;51.094;13.714;2024-02-16T05:41:00;100326.09;;;17.14;51.38
75656;BME280;64252;51.094;13.714;2024-02-16T05:43:26;100326.53;;;17.55;50.49
75656;BME280;64252;51.094;13.714;2024-02-16T05:45:52;100328.13;;;17.56;49.94
75656;BME280;64252;51.094;13.714;2024-02-16T05:48:17;100327.75;;;17.78;49.67
75656;BME280;64252;51.094;13.714;2024-02-16T05:50:44;100312.56;;;17.61;49.97
75656;BME280;64252;51.094;13.714;2024-02-16T05:53:10;100318.28;;;17.61;50.19
75656;BME280;64252;51.094;13.714;2024-02-16T05:55:36;100312.94;;;17.83;49.23
75656;BME280;64252;51.094;13.714;2024-02-16T05:58:02;100322.13;;;17.74;49.40
75656;BME280;64252;51.094;13.714;2024-02-16T06:00:32;100315.31;;;17.02;51.00
75656;BME280;64252;51.094;13.714;2024-02-16T06:02:58;100308.34;;;17.26;50.57
75656;BME280;64252;51.094;13.714;2024-02-16T06:05:24;100311.03;;;16.67;52.24
75656;BME280;64252;51.094;13.714;2024-02-16T06:07:49;100324.13;;;17.11;50.63
75656;BME280;64252;51.094;13.714;2024-02-16T06:10:16;100325.94;;;17.44;50.12
75656;BME280;64252;51.094;13.714;2024-02-16T06:12:43;100308.66;;;17.51;50.26
75656;BME280;64252;51.094;13.714;2024-02-16T06:15:09;100310.25;;;17.13;50.65
75656;BME280;64252;51.094;13.714;2024-02-16T06:17:35;100310.03;;;16.77;51.21
75656;BME280;64252;51.094;13.714;2024-02-16T06:20:02;100317.22;;;17.75;49.00
75656;BME280;64252;51.094;13.714;2024-02-16T06:22:29;100315.81;;;17.20;50.20
75656;BME280;64252;51.094;13.714;2024-02-16T06:24:57;100307.94;;;16.81;50.96
75656;BME280;64252;51.094;13.714;2024-02-16T06:27:26;100319.47;;;16.97;50.78
75656;BME280;64252;51.094;13.714;2024-02-16T06:29:51;100330.06;;;17.20;50.07
75656;BME280;64252;51.094;13.714;2024-02-16T06:32:17;100334.06;;;17.46;49.27
75656;BME280;64252;51.094;13.714;2024-02-16T06:34:42;100332.81;;;16.81;51.58
75656;BME280;64252;51.094;13.714;2024-02-16T06:37:08;100330.22;;;16.90;51.41
75656;BME280;64252;51.094;13.714;2024-02-16T06:39:34;100334.16;;;16.96;50.67
75656;BME280;64252;51.094;13.714;2024-02-16T06:41:59;100348.53;;;17.35;49.64
75656;BME280;64252;51.094;13.714;2024-02-16T06:44:25;100357.47;;;18.00;48.34
75656;BME280;64252;51.094;13.714;2024-02-16T06:46:51;100358.00;;;17.32;49.17
75656;BME280;64252;51.094;13.714;2024-02-16T06:49:17;100344.47;;;17.13;50.00
75656;BME280;64252;51.094;13.714;2024-02-16T06:51:42;100336.25;;;17.38;49.61
75656;BME280;64252;51.094;13.714;2024-02-16T06:54:10;100329.19;;;17.00;50.34
75656;BME280;64252;51.094;13.714;2024-02-16T06:56:36;100333.84;;;16.67;50.69
75656;BME280;64252;51.094;13.714;2024-02-16T06:59:01;100335.94;;;17.33;49.15
75656;BME280;64252;51.094;13.714;2024-02-16T07:01:27;100329.44;;;16.86;50.55
75656;BME280;64252;51.094;13.714;2024-02-16T07:03:53;100339.63;;;17.10;49.38
75656;BME280;64252;51.094;13.714;2024-02-16T07:06:18;100342.06;;;17.94;47.88
75656;BME280;64252;51.094;13.714;2024-02-16T07:08:45;100339.72;;;17.49;48.60
75656;BME280;64252;51.094;13.714;2024-02-16T07:11:10;100341.72;;;17.92;47.81
75656;BME280;64252;51.094;13.714;2024-02-16T07:13:39;100337.25;;;17.91;47.46
75656;BME280;64252;51.094;13.714;2024-02-16T07:16:06;100334.00;;;17.49;48.54
75656;BME280;64252;51.094;13.714;2024-02-16T07:18:33;100329.28;;;18.02;47.45
75656;BME280;64252;51.094;13.714;2024-02-16T07:20:58;100342.03;;;18.33;46.70
75656;BME280;64252;51.094;13.714;2024-02-16T07:23:25;100337.22;;;18.47;46.20
75656;BME280;64252;51.094;13.714;2024-02-16T07:25:51;100337.72;;;17.70;48.27
75656;BME280;64252;51.094;13.714;2024-02-16T07:28:20;100340.69;;;18.58;46.37
75656;BME280;64252;51.094;13.714;2024-02-16T07:30:46;100340.25;;;18.04;47.07
75656;BME280;64252;51.094;13.714;2024-02-16T07:33:11;100341.94;;;18.73;45.98
75656;BME280;64252;51.094;13.714;2024-02-16T07:35:37;100338.22;;;17.84;47.04
75656;BME280;64252;51.094;13.714;2024-02-16T07:38:03;100339.88;;;18.57;46.16
75656;BME280;64252;51.094;13.714;2024-02-16T07:40:29;100333.38;;;17.81;47.20
75656;BME280;64252;51.094;13.714;2024-02-16T07:42:56;100338.13;;;17.25;48.43
75656;BME280;64252;51.094;13.714;2024-02-16T07:45:22;100342.44;;;18.16;47.28
75656;BME280;64252;51.094;13.714;2024-02-16T07:47:48;100339.53;;;18.71;46.05
75656;BME280;64252;51.094;13.714;2024-02-16T07:50:17;100335.47;;;19.34;45.00
75656;BME280;64252;51.094;13.714;2024-02-16T07:52:43;100345.88;;;18.95;45.49
75656;BME280;64252;51.094;13.714;2024-02-16T07:55:08;100339.41;;;19.23;45.00
75656;BME280;64252;51.094;13.714;2024-02-16T07:57:34;100341.19;;;19.34;44.06
75656;BME280;64252;51.094;13.714;2024-02-16T08:00:00;100339.41;;;19.07;44.85
75656;BME280;64252;51.094;13.714;2024-02-16T08:02:25;100331.50;;;18.47;46.26
75656;BME280;64252;51.094;13.714;2024-02-16T08:04:51;100331.13;;;18.64;45.95
75656;BME280;64252;51.094;13.714;2024-02-16T08:07:17;100336.50;;;18.78;45.43
75656;BME280;64252;51.094;13.714;2024-02-16T08:09:50;100337.66;;;18.81;45.65
75656;BME280;64252;51.094;13.714;2024-02-16T08:12:16;100343.00;;;18.63;45.76
75656;BME280;64252;51.094;13.714;2024-02-16T08:14:42;100332.53;;;19.66;43.60
75656;BME280;64252;51.094;13.714;2024-02-16T08:17:08;100337.31;;;19.98;43.11
75656;BME280;64252;51.094;13.714;2024-02-16T08:19:35;100333.28;;;17.85;46.99
75656;BME280;64252;51.094;13.714;2024-02-16T08:22:02;100334.53;;;18.59;45.77
75656;BME280;64252;51.094;13.714;2024-02-16T08:24:28;100336.69;;;18.52;45.97
75656;BME280;64252;51.094;13.714;2024-02-16T08:26:54;100329.06;;;18.97;45.15
75656;BME280;64252;51.094;13.714;2024-02-16T08:29:19;100339.25;;;19.59;43.80
75656;BME280;64252;51.094;13.714;2024-02-16T08:31:49;100338.66;;;19.36;44.20
75656;BME280;64252;51.094;13.714;2024-02-16T08:34:16;100333.78;;;19.65;43.29
75656;BME280;64252;51.094;13.714;2024-02-16T08:36:48;100334.94;;;19.22;44.00
75656;BME280;64252;51.094;13.714;2024-02-16T08:39:14;100336.59;;;18.91;44.41
75656;BME280;64252;51.094;13.714;2024-02-16T08:41:40;100324.22;;;18.62;45.12
75656;BME280;64252;51.094;13.714;2024-02-16T08:44:07;100331.56;;;18.95;44.68
75656;BME280;64252;51.094;13.714;2024-02-16T08:46:38;100324.94;;;19.14;44.42
75656;BME280;64252;51.094;13.714;2024-02-16T08:49:04;100326.16;;;20.29;42.66
75656;BME280;64252;51.094;13.714;2024-02-16T08:51:32;100331.22;;;18.77;44.91
75656;BME280;64252;51.094;13.714;2024-02-16T08:53:58;100327.97;;;19.07;44.63
75656;BME280;64252;51.094;13.714;2024-02-16T08:56:23;100327.63;;;18.89;45.22
75656;BME280;64252;51.094;13.714;2024-02-16T08:58:49;100329.84;;;19.59;44.40
75656;BME280;64252;51.094;13.714;2024-02-16T09:01:14;100323.72;;;20.14;42.96
75656;BME280;64252;51.094;13.714;2024-02-16T09:03:42;100333.44;;;20.71;42.10
75656;BME280;64252;51.094;13.714;2024-02-16T09:06:08;100335.00;;;19.80;43.04
75656;BME280;64252;51.094;13.714;2024-02-16T09:08:35;100323.44;;;19.55;43.30
75656;BME280;64252;51.094;13.714;2024-02-16T09:11:02;100337.09;;;20.72;41.49
75656;BME280;64252;51.094;13.714;2024-02-16T09:13:34;100330.88;;;20.98;40.80
75656;BME280;64252;51.094;13.714;2024-02-16T09:16:02;100332.72;;;20.54;40.69
75656;BME280;64252;51.094;13.714;2024-02-16T09:18:31;100340.22;;;20.10;42.43
75656;BME280;64252;51.094;13.714;2024-02-16T09:20:56;100348.78;;;20.39;42.08
75656;BME280;64252;51.094;13.714;2024-02-16T09:23:22;100336.06;;;20.53;41.30
75656;BME280;64252;51.094;13.714;2024-02-16T09:25:48;100347.25;;;19.81;42.55
75656;BME280;64252;51.094;13.714;2024-02-16T09:28:14;100338.06;;;20.14;42.42
75656;BME280;64252;51.094;13.714;2024-02-16T09:30:40;100347.53;;;20.66;40.70
75656;BME280;64252;51.094;13.714;2024-02-16T09:33:05;100344.75;;;20.87;40.47
75656;BME280;64252;51.094;13.714;2024-02-16T09:35:32;100344.94;;;20.30;41.56
75656;BME280;64252;51.094;13.714;2024-02-16T09:37:58;100344.44;;;19.93;42.32
75656;BME280;64252;51.094;13.714;2024-02-16T09:40:23;100341.75;;;20.28;42.49
75656;BME280;64252;51.094;13.714;2024-02-16T09:42:49;100340.25;;;20.23;41.89
75656;BME280;64252;51.094;13.714;2024-02-16T09:45:15;100348.88;;;19.53;43.31
75656;BME280;64252;51.094;13.714;2024-02-16T09:47:47;100341.84;;;20.11;42.23
75656;BME280;64252;51.094;13.714;2024-02-16T09:50:15;100344.44;;;20.85;41.24
75656;BME280;64252;51.094;13.714;2024-02-16T09:52:42;100345.47;;;19.58;42.59
75656;BME280;64252;51.094;13.714;2024-02-16T09:55:12;100346.84;;;19.95;42.33
75656;BME280;64252;51.094;13.714;2024-02-16T09:57:38;100342.16;;;20.01;42.11
75656;BME280;64252;51.094;13.714;2024-02-16T10:00:04;100349.47;;;19.60;42.62
75656;BME280;64252;51.094;13.714;2024-02-16T10:02:47;100345.34;;;19.90;41.97
75656;BME280;64252;51.094;13.714;2024-02-16T10:05:20;100354.13;;;20.25;41.40
75656;BME280;64252;51.094;13.714;2024-02-16T10:07:46;100346.63;;;20.56;41.09
75656;BME280;64252;51.094;13.714;2024-02-16T10:12:49;100348.94;;;20.61;40.91
75656;BME280;64252;51.094;13.714;2024-02-16T10:15:22;100347.06;;;20.42;41.65
75656;BME280;64252;51.094;13.714;2024-02-16T10:18:07;100334.94;;;19.96;42.01
75656;BME280;64252;51.094;13.714;2024-02-16T10:20:34;100334.69;;;19.62;42.68
75656;BME280;64252;51.094;13.714;2024-02-16T10:23:08;100331.91;;;20.29;40.89
75656;BME280;64252;51.094;13.714;2024-02-16T10:25:35;100330.41;;;20.24;41.31
75656;BME280;64252;51.094;13.714;2024-02-16T10:28:11;100332.22;;;20.18;41.01
75656;BME280;64252;51.094;13.714;2024-02-16T10:30:40;100329.16;;;20.88;40.25
75656;BME280;64252;51.094;13.714;2024-02-16T10:33:08;100324.72;;;19.95;41.77
75656;BME280;64252;51.094;13.714;2024-02-16T10:35:35;100337.19;;;21.19;39.62
75656;BME280;64252;51.094;13.714;2024-02-16T10:38:02;100328.72;;;20.52;40.64
75656;BME280;64252;51.094;13.714;2024-02-16T10:40:37;100326.84;;;21.09;39.60
75656;BME280;64252;51.094;13.714;2024-02-16T10:43:04;100327.41;;;20.91;40.04
75656;BME280;64252;51.094;13.714;2024-02-16T10:45:35;100334.00;;;21.38;39.17
75656;BME280;64252;51.094;13.714;2024-02-16T10:48:03;100335.47;;;21.43;39.16
75656;BME280;64252;51.094;13.714;2024-02-16T10:50:32;100337.13;;;21.66;38.79
75656;BME280;64252;51.094;13.714;2024-02-16T10:53:04;100339.00;;;21.13;39.86
75656;BME280;64252;51.094;13.714;2024-02-16T10:55:34;100337.78;;;20.63;39.92
75656;BME280;64252;51.094;13.714;2024-02-16T10:58:00;100336.19;;;20.62;41.15
75656;BME280;64252;51.094;13.714;2024-02-16T11:00:25;100320.06;;;21.15;39.73
75656;BME280;64252;51.094;13.714;2024-02-16T11:02:55;100320.66;;;20.72;40.62
75656;BME280;64252;51.094;13.714;2024-02-16T11:05:51;100308.19;;;20.41;40.68
75656;BME280;64252;51.094;13.714;2024-02-16T11:08:23;100312.91;;;21.32;40.01
75656;BME280;64252;51.094;13.714;2024-02-16T11:11:02;100315.56;;;21.01;40.18
75656;BME280;64252;51.094;13.714;2024-02-16T11:13:34;100320.72;;;21.54;39.42
75656;BME280;64252;51.094;13.714;2024-02-16T11:16:08;100321.59;;;20.69;40.66
75656;BME280;64252;51.094;13.714;2024-02-16T11:18:38;100321.88;;;21.22;39.67
75656;BME280;64252;51.094;13.714;2024-02-16T11:21:05;100326.16;;;20.92;40.03
75656;BME280;64252;51.094;13.714;2024-02-16T11:23:34;100319.81;;;21.22;39.29
75656;BME280;64252;51.094;13.714;2024-02-16T11:28:27;100313.25;;;21.22;39.12
75656;BME280;64252;51.094;13.714;2024-02-16T11:30:53;100310.25;;;21.60;38.78
75656;BME280;64252;51.094;13.714;2024-02-16T11:33:18;100306.72;;;21.99;37.50
75656;BME280;64252;51.094;13.714;2024-02-16T11:36:00;100304.63;;;20.62;40.45
75656;BME280;64252;51.094;13.714;2024-02-16T11:38:26;100297.81;;;20.18;41.11
75656;BME280;64252;51.094;13.714;2024-02-16T11:40:59;100304.34;;;20.94;39.50
75656;BME280;64252;51.094;13.714;2024-02-16T11:43:25;100308.47;;;20.93;39.96
75656;BME280;64252;51.094;13.714;2024-02-16T11:45:52;100301.41;;;20.60;40.48
75656;BME280;64252;51.094;13.714;2024-02-16T11:48:22;100299.34;;;21.76;38.78
75656;BME280;64252;51.094;13.714;2024-02-16T11:50:49;100293.38;;;21.27;38.78
75656;BME280;64252;51.094;13.714;2024-02-16T11:53:18;100302.09;;;21.58;39.01
75656;BME280;64252;51.094;13.714;2024-02-16T11:55:49;100297.81;;;20.94;39.74
75656;BME280;64252;51.094;13.714;2024-02-16T11:58:16;100291.66;;;21.73;38.91
75656;BME280;64252;51.094;13.714;2024-02-16T12:00:44;100296.78;;;21.57;38.98
75656;BME280;64252;51.094;13.714;2024-02-16T12:03:11;100304.53;;;22.03;37.52
75656;BME280;64252;51.094;13.714;2024-02-16T12:05:37;100300.94;;;22.21;37.85
75656;BME280;64252;51.094;13.714;2024-02-16T12:08:05;100303.22;;;22.66;36.99
75656;BME280;64252;51.094;13.714;2024-02-16T12:10:32;100310.78;;;22.72;37.06
75656;BME280;64252;51.094;13.714;2024-02-16T12:12:58;100300.31;;;23.06;36.19
75656;BME280;64252;51.094;13.714;2024-02-16T12:15:23;100308.06;;;21.29;38.68
75656;BME280;64252;51.094;13.714;2024-02-16T12:17:58;100305.16;;;21.64;38.41
75656;BME280;64252;51.094;13.714;2024-02-16T12:20:25;100314.91;;;22.31;37.08
75656;BME280;64252;51.094;13.714;2024-02-16T12:22:51;100314.88;;;22.01;37.49
75656;BME280;64252;51.094;13.714;2024-02-16T12:25:16;100316.53;;;22.11;37.02
75656;BME280;64252;51.094;13.714;2024-02-16T12:27:42;100318.13;;;21.90;37.83
75656;BME280;64252;51.094;13.714;2024-02-16T12:30:08;100314.72;;;21.82;37.71
75656;BME280;64252;51.094;13.714;2024-02-16T12:32:34;100307.41;;;21.47;37.88
75656;BME280;64252;51.094;13.714;2024-02-16T12:34:59;100312.09;;;21.32;38.45
75656;BME280;64252;51.094;13.714;2024-02-16T12:37:25;100318.94;;;21.90;37.51
75656;BME280;64252;51.094;13.714;2024-02-16T12:39:50;100318.88;;;21.25;38.74
75656;BME280;64252;51.094;13.714;2024-02-16T12:42:16;100308.41;;;22.80;36.57
75656;BME280;64252;51.094;13.714;2024-02-16T12:44:42;100307.72;;;23.25;35.74